sensor_id;sensor_type;location;lat;lon;timestamp;pressure;altitude;pressure_sealevel;temperature;humidity
66945;BME280;53853;51.982;5.928;2022-12-22T00:02:00;100372.13;;;11.21;78.96
66945;BME280;53853;51.982;5.928;2022-12-22T00:04:46;100363.13;;;11.22;79.16
66945;BME280;53853;51.982;5.928;2022-12-22T00:07:28;100354.31;;;11.21;79.12
66945;BME280;53853;51.982;5.928;2022-12-22T00:10:14;100355.13;;;11.22;79.14
66945;BME280;53853;51.982;5.928;2022-12-22T00:12:56;100345.44;;;11.21;79.34
66945;BME280;53853;51.982;5.928;2022-12-22T00:15:38;100346.28;;;11.21;79.21
66945;BME280;53853;51.982;5.928;2022-12-22T00:18:21;100342.63;;;11.22;79.29
66945;BME280;53853;51.982;5.928;2022-12-22T00:21:03;100343.47;;;11.23;79.20
66945;BME280;53853;51.982;5.928;2022-12-22T00:23:46;100347.78;;;11.24;79.37
66945;BME280;53853;51.982;5.928;2022-12-22T00:26:32;100343.31;;;11.24;79.27
66945;BME280;53853;51.982;5.928;2022-12-22T00:29:16;100350.28;;;11.26;79.49
66945;BME280;53853;51.982;5.928;2022-12-22T00:31:59;100344.94;;;11.26;79.55
66945;BME280;53853;51.982;5.928;2022-12-22T00:34:42;100335.31;;;11.24;79.56
66945;BME280;53853;51.982;5.928;2022-12-22T00:37:29;100335.31;;;11.24;79.68
66945;BME280;53853;51.982;5.928;2022-12-22T00:40:17;100331.28;;;11.20;79.70
66945;BME280;53853;51.982;5.928;2022-12-22T00:43:02;100321.28;;;11.22;79.65
66945;BME280;53853;51.982;5.928;2022-12-22T00:45:44;100329.44;;;11.21;79.99
66945;BME280;53853;51.982;5.928;2022-12-22T00:48:27;100316.28;;;11.19;79.97
66945;BME280;53853;51.982;5.928;2022-12-22T00:51:09;100305.59;;;11.19;79.83
66945;BME280;53853;51.982;5.928;2022-12-22T00:53:53;100309.13;;;11.20;79.89
66945;BME280;53853;51.982;5.928;2022-12-22T00:56:35;100299.13;;;11.22;80.28
66945;BME280;53853;51.982;5.928;2022-12-22T00:59:20;100285.13;;;11.20;79.91
66945;BME280;53853;51.982;5.928;2022-12-22T01:02:04;100272.78;;;11.19;79.83
66945;BME280;53853;51.982;5.928;2022-12-22T01:04:46;100273.44;;;11.13;80.14
66945;BME280;53853;51.982;5.928;2022-12-22T01:07:29;100266.25;;;11.13;80.07
66945;BME280;53853;51.982;5.928;2022-12-22T01:10:12;100259.13;;;11.14;79.87
66945;BME280;53853;51.982;5.928;2022-12-22T01:12:55;100260.28;;;11.11;79.84
66945;BME280;53853;51.982;5.928;2022-12-22T01:15:40;100257.78;;;11.10;80.18
66945;BME280;53853;51.982;5.928;2022-12-22T01:18:22;100244.59;;;11.08;80.11
66945;BME280;53853;51.982;5.928;2022-12-22T01:21:05;100250.59;;;11.10;80.16
66945;BME280;53853;51.982;5.928;2022-12-22T01:23:47;100250.59;;;11.10;80.20
66945;BME280;53853;51.982;5.928;2022-12-22T01:26:29;100250.78;;;11.09;80.11
66945;BME280;53853;51.982;5.928;2022-12-22T01:29:12;100243.63;;;11.09;80.28
66945;BME280;53853;51.982;5.928;2022-12-22T01:31:57;100243.78;;;11.08;80.33
66945;BME280;53853;51.982;5.928;2022-12-22T01:34:39;100244.94;;;11.05;80.25
66945;BME280;53853;51.982;5.928;2022-12-22T01:37:22;100250.59;;;11.02;80.14
66945;BME280;53853;51.982;5.928;2022-12-22T01:40:07;100240.28;;;10.99;80.39
66945;BME280;53853;51.982;5.928;2022-12-22T01:42:53;100247.63;;;10.97;80.51
66945;BME280;53853;51.982;5.928;2022-12-22T01:45:36;100248.44;;;10.97;80.45
66945;BME280;53853;51.982;5.928;2022-12-22T01:48:26;100251.78;;;10.99;80.46
66945;BME280;53853;51.982;5.928;2022-12-22T01:51:11;100239.44;;;10.98;80.61
66945;BME280;53853;51.982;5.928;2022-12-22T01:53:54;100248.44;;;10.97;80.52
66945;BME280;53853;51.982;5.928;2022-12-22T01:56:37;100240.44;;;10.97;80.51
66945;BME280;53853;51.982;5.928;2022-12-22T01:59:20;100237.78;;;10.97;80.66
66945;BME280;53853;51.982;5.928;2022-12-22T02:02:05;100232.44;;;10.97;80.45
66945;BME280;53853;51.982;5.928;2022-12-22T02:04:51;100229.94;;;10.96;80.49
66945;BME280;53853;51.982;5.928;2022-12-22T02:07:56;100222.09;;;10.94;80.67
66945;BME280;53853;51.982;5.928;2022-12-22T02:11:06;100215.31;;;10.92;80.78
66945;BME280;53853;51.982;5.928;2022-12-22T02:14:01;100214.66;;;10.90;81.02
66945;BME280;53853;51.982;5.928;2022-12-22T02:16:50;100208.47;;;10.89;81.20
66945;BME280;53853;51.982;5.928;2022-12-22T02:22:52;100197.97;;;10.87;80.96
66945;BME280;53853;51.982;5.928;2022-12-22T02:25:42;100200.63;;;10.87;80.71
66945;BME280;53853;51.982;5.928;2022-12-22T02:28:32;100201.66;;;10.86;81.00
66945;BME280;53853;51.982;5.928;2022-12-22T02:31:15;100192.81;;;10.86;81.05
66945;BME280;53853;51.982;5.928;2022-12-22T02:33:58;100188.31;;;10.86;81.37
66945;BME280;53853;51.982;5.928;2022-12-22T02:36:47;100191.97;;;10.85;81.34
66945;BME280;53853;51.982;5.928;2022-12-22T02:39:40;100187.81;;;10.83;81.11
66945;BME280;53853;51.982;5.928;2022-12-22T02:42:33;100185.31;;;10.81;81.44
66945;BME280;53853;51.982;5.928;2022-12-22T02:45:23;100180.13;;;10.80;81.53
66945;BME280;53853;51.982;5.928;2022-12-22T02:48:13;100170.50;;;10.79;81.47
66945;BME280;53853;51.982;5.928;2022-12-22T02:51:01;100171.31;;;10.79;81.20
66945;BME280;53853;51.982;5.928;2022-12-22T02:53:47;100169.66;;;10.78;81.31
66945;BME280;53853;51.982;5.928;2022-12-22T02:56:29;100165.16;;;10.79;81.46
66945;BME280;53853;51.982;5.928;2022-12-22T02:59:11;100168.97;;;10.84;81.09
66945;BME280;53853;51.982;5.928;2022-12-22T03:01:56;100171.31;;;10.87;81.26
66945;BME280;53853;51.982;5.928;2022-12-22T03:04:39;100169.50;;;10.88;81.39
66945;BME280;53853;51.982;5.928;2022-12-22T03:07:21;100167.16;;;10.85;81.88
66945;BME280;53853;51.982;5.928;2022-12-22T03:10:04;100168.63;;;10.87;81.74
66945;BME280;53853;51.982;5.928;2022-12-22T03:12:47;100165.97;;;10.87;81.81
66945;BME280;53853;51.982;5.928;2022-12-22T03:15:29;100164.16;;;10.88;81.89
66945;BME280;53853;51.982;5.928;2022-12-22T03:18:14;100151.81;;;10.87;81.81
66945;BME280;53853;51.982;5.928;2022-12-22T03:20:57;100147.47;;;10.86;81.88
66945;BME280;53853;51.982;5.928;2022-12-22T03:23:39;100144.81;;;10.86;81.90
66945;BME280;53853;51.982;5.928;2022-12-22T03:26:22;100145.84;;;10.85;82.02
66945;BME280;53853;51.982;5.928;2022-12-22T03:28:52;100144.00;;;10.85;81.96
66945;BME280;53853;51.982;5.928;2022-12-22T03:31:22;100139.81;;;10.83;81.90
66945;BME280;53853;51.982;5.928;2022-12-22T03:33:54;100131.66;;;10.84;81.93
66945;BME280;53853;51.982;5.928;2022-12-22T03:36:24;100125.50;;;10.84;82.22
66945;BME280;53853;51.982;5.928;2022-12-22T03:38:54;100121.84;;;10.85;82.13
66945;BME280;53853;51.982;5.928;2022-12-22T03:41:24;100116.53;;;10.85;82.10
66945;BME280;53853;51.982;5.928;2022-12-22T03:44:07;100116.53;;;10.85;82.14
66945;BME280;53853;51.982;5.928;2022-12-22T03:46:49;100114.03;;;10.83;82.22
66945;BME280;53853;51.982;5.928;2022-12-22T03:49:21;100105.84;;;10.85;82.23
66945;BME280;53853;51.982;5.928;2022-12-22T03:51:52;100109.34;;;10.85;82.20
66945;BME280;53853;51.982;5.928;2022-12-22T03:54:24;100109.34;;;10.85;82.28
66945;BME280;53853;51.982;5.928;2022-12-22T03:56:54;100107.66;;;10.84;82.34
66945;BME280;53853;51.982;5.928;2022-12-22T03:59:24;100103.34;;;10.83;82.51
66945;BME280;53853;51.982;5.928;2022-12-22T04:01:54;100104.19;;;10.84;82.57
66945;BME280;53853;51.982;5.928;2022-12-22T04:04:27;100097.69;;;10.86;82.53
66945;BME280;53853;51.982;5.928;2022-12-22T04:06:57;100097.69;;;10.86;82.47
66945;BME280;53853;51.982;5.928;2022-12-22T04:09:26;100088.03;;;10.85;82.53
66945;BME280;53853;51.982;5.928;2022-12-22T04:11:56;100083.34;;;10.87;82.60
66945;BME280;53853;51.982;5.928;2022-12-22T04:14:39;100079.50;;;10.90;82.48
66945;BME280;53853;51.982;5.928;2022-12-22T04:17:09;100087.69;;;10.88;82.47
66945;BME280;53853;51.982;5.928;2022-12-22T04:19:41;100086.69;;;10.90;82.29
66945;BME280;53853;51.982;5.928;2022-12-22T04:22:11;100074.34;;;10.88;82.48
66945;BME280;53853;51.982;5.928;2022-12-22T04:24:41;100069.84;;;10.89;82.39
66945;BME280;53853;51.982;5.928;2022-12-22T04:27:11;100063.69;;;10.88;82.42
66945;BME280;53853;51.982;5.928;2022-12-22T04:29:41;100066.34;;;10.88;82.20
66945;BME280;53853;51.982;5.928;2022-12-22T04:32:11;100058.53;;;10.87;82.07
66945;BME280;53853;51.982;5.928;2022-12-22T04:34:43;100072.69;;;10.87;82.03
66945;BME280;53853;51.982;5.928;2022-12-22T04:37:13;100078.00;;;10.87;81.92
66945;BME280;53853;51.982;5.928;2022-12-22T04:39:43;100092.34;;;10.86;82.05
66945;BME280;53853;51.982;5.928;2022-12-22T04:42:13;100096.84;;;10.86;82.20
66945;BME280;53853;51.982;5.928;2022-12-22T04:44:43;100106.69;;;10.85;82.09
66945;BME280;53853;51.982;5.928;2022-12-22T04:47:13;100106.03;;;10.83;82.42
66945;BME280;53853;51.982;5.928;2022-12-22T04:49:45;100110.50;;;10.83;82.70
66945;BME280;53853;51.982;5.928;2022-12-22T04:52:15;100096.00;;;10.85;82.64
66945;BME280;53853;51.982;5.928;2022-12-22T04:54:45;100107.34;;;10.87;82.73
66945;BME280;53853;51.982;5.928;2022-12-22T04:57:15;100110.16;;;10.86;82.70
66945;BME280;53853;51.982;5.928;2022-12-22T04:59:45;100095.84;;;10.87;82.81
66945;BME280;53853;51.982;5.928;2022-12-22T05:02:15;100094.69;;;10.90;82.74
66945;BME280;53853;51.982;5.928;2022-12-22T05:04:47;100093.66;;;10.91;82.54
66945;BME280;53853;51.982;5.928;2022-12-22T05:07:17;100098.19;;;10.90;82.57
66945;BME280;53853;51.982;5.928;2022-12-22T05:09:47;100097.53;;;10.88;82.39
66945;BME280;53853;51.982;5.928;2022-12-22T05:12:17;100100.19;;;10.88;82.48
66945;BME280;53853;51.982;5.928;2022-12-22T05:14:59;100092.03;;;10.90;82.69
66945;BME280;53853;51.982;5.928;2022-12-22T05:17:29;100092.03;;;10.90;82.64
66945;BME280;53853;51.982;5.928;2022-12-22T05:20:02;100090.00;;;10.92;82.63
66945;BME280;53853;51.982;5.928;2022-12-22T05:22:32;100094.31;;;10.93;82.31
66945;BME280;53853;51.982;5.928;2022-12-22T05:25:02;100100.97;;;10.97;82.37
66945;BME280;53853;51.982;5.928;2022-12-22T05:27:32;100093.16;;;10.95;82.48
66945;BME280;53853;51.982;5.928;2022-12-22T05:30:02;100104.63;;;10.96;82.42
66945;BME280;53853;51.982;5.928;2022-12-22T05:32:32;100098.31;;;10.97;82.30
66945;BME280;53853;51.982;5.928;2022-12-22T05:35:06;100106.31;;;10.97;82.48
66945;BME280;53853;51.982;5.928;2022-12-22T05:37:36;100094.16;;;10.94;82.87
66945;BME280;53853;51.982;5.928;2022-12-22T05:40:07;100094.66;;;10.98;82.59
66945;BME280;53853;51.982;5.928;2022-12-22T05:42:38;100090.97;;;10.99;82.37
66945;BME280;53853;51.982;5.928;2022-12-22T05:45:12;100091.81;;;10.99;82.54
66945;BME280;53853;51.982;5.928;2022-12-22T05:47:43;100078.66;;;10.98;82.80
66945;BME280;53853;51.982;5.928;2022-12-22T05:50:18;100088.31;;;10.99;82.66
66945;BME280;53853;51.982;5.928;2022-12-22T05:52:58;100096.31;;;10.99;82.33
66945;BME280;53853;51.982;5.928;2022-12-22T05:55:28;100095.47;;;10.98;82.29
66945;BME280;53853;51.982;5.928;2022-12-22T05:57:58;100108.16;;;10.96;82.46
66945;BME280;53853;51.982;5.928;2022-12-22T06:00:30;100112.31;;;10.99;82.38
66945;BME280;53853;51.982;5.928;2022-12-22T06:03:00;100109.81;;;10.97;82.47
66945;BME280;53853;51.982;5.928;2022-12-22T06:05:32;100110.66;;;10.98;82.45
66945;BME280;53853;51.982;5.928;2022-12-22T06:08:03;100125.63;;;10.99;82.40
66945;BME280;53853;51.982;5.928;2022-12-22T06:10:33;100130.78;;;11.00;82.36
66945;BME280;53853;51.982;5.928;2022-12-22T06:13:03;100130.63;;;11.02;82.44
66945;BME280;53853;51.982;5.928;2022-12-22T06:15:32;100129.81;;;11.01;82.67
66945;BME280;53853;51.982;5.928;2022-12-22T06:18:02;100136.13;;;11.00;82.72
66945;BME280;53853;51.982;5.928;2022-12-22T06:20:35;100142.66;;;10.98;82.84
66945;BME280;53853;51.982;5.928;2022-12-22T06:23:05;100143.63;;;10.97;82.82
66945;BME280;53853;51.982;5.928;2022-12-22T06:25:35;100142.66;;;10.98;82.86
66945;BME280;53853;51.982;5.928;2022-12-22T06:28:05;100157.47;;;11.00;82.69
66945;BME280;53853;51.982;5.928;2022-12-22T06:30:35;100152.13;;;11.00;82.73
66945;BME280;53853;51.982;5.928;2022-12-22T06:33:05;100160.28;;;10.99;82.88
66945;BME280;53853;51.982;5.928;2022-12-22T06:35:38;100163.81;;;10.99;82.84
66945;BME280;53853;51.982;5.928;2022-12-22T06:38:08;100168.13;;;11.00;82.86
66945;BME280;53853;51.982;5.928;2022-12-22T06:40:38;100168.13;;;11.00;82.94
66945;BME280;53853;51.982;5.928;2022-12-22T06:43:08;100180.47;;;11.01;82.76
66945;BME280;53853;51.982;5.928;2022-12-22T06:45:37;100167.94;;;11.02;82.76
66945;BME280;53853;51.982;5.928;2022-12-22T06:48:09;100174.31;;;11.01;82.92
66945;BME280;53853;51.982;5.928;2022-12-22T06:50:41;100179.47;;;11.02;82.72
66945;BME280;53853;51.982;5.928;2022-12-22T06:53:12;100182.97;;;11.03;82.62
66945;BME280;53853;51.982;5.928;2022-12-22T06:55:42;100184.63;;;11.04;82.55
66945;BME280;53853;51.982;5.928;2022-12-22T06:58:12;100183.28;;;11.08;82.42
66945;BME280;53853;51.982;5.928;2022-12-22T07:00:42;100186.78;;;11.09;82.64
66945;BME280;53853;51.982;5.928;2022-12-22T07:03:14;100202.59;;;11.10;82.57
66945;BME280;53853;51.982;5.928;2022-12-22T07:05:46;100201.59;;;11.11;82.38
66945;BME280;53853;51.982;5.928;2022-12-22T07:08:16;100188.44;;;11.10;82.44
66945;BME280;53853;51.982;5.928;2022-12-22T07:10:46;100182.47;;;11.08;82.09
66945;BME280;53853;51.982;5.928;2022-12-22T07:13:30;100184.81;;;11.02;82.10
66945;BME280;53853;51.982;5.928;2022-12-22T07:16:01;100194.94;;;10.99;82.13
66945;BME280;53853;51.982;5.928;2022-12-22T07:18:33;100188.31;;;10.95;82.25
66945;BME280;53853;51.982;5.928;2022-12-22T07:21:08;100201.97;;;10.92;82.32
66945;BME280;53853;51.982;5.928;2022-12-22T07:23:39;100212.97;;;10.88;82.51
66945;BME280;53853;51.982;5.928;2022-12-22T07:26:10;100212.97;;;10.88;82.69
66945;BME280;53853;51.982;5.928;2022-12-22T07:28:41;100211.13;;;10.89;82.48
66945;BME280;53853;51.982;5.928;2022-12-22T07:31:11;100212.97;;;10.88;82.19
66945;BME280;53853;51.982;5.928;2022-12-22T07:33:42;100224.63;;;10.87;82.11
66945;BME280;53853;51.982;5.928;2022-12-22T07:36:16;100226.63;;;10.85;81.89
66945;BME280;53853;51.982;5.928;2022-12-22T07:38:46;100241.97;;;10.83;81.91
66945;BME280;53853;51.982;5.928;2022-12-22T07:41:18;100253.94;;;10.79;81.88
66945;BME280;53853;51.982;5.928;2022-12-22T07:44:01;100251.59;;;10.76;82.00
66945;BME280;53853;51.982;5.928;2022-12-22T07:46:33;100255.25;;;10.75;81.67
66945;BME280;53853;51.982;5.928;2022-12-22T07:49:03;100261.78;;;10.73;81.75
66945;BME280;53853;51.982;5.928;2022-12-22T07:51:48;100280.25;;;10.74;81.74
66945;BME280;53853;51.982;5.928;2022-12-22T07:54:18;100273.91;;;10.75;81.99
66945;BME280;53853;51.982;5.928;2022-12-22T07:56:48;100283.09;;;10.73;81.58
66945;BME280;53853;51.982;5.928;2022-12-22T07:59:19;100292.91;;;10.72;81.61
66945;BME280;53853;51.982;5.928;2022-12-22T08:01:49;100287.06;;;10.68;81.63
66945;BME280;53853;51.982;5.928;2022-12-22T08:04:19;100292.91;;;10.72;81.47
66945;BME280;53853;51.982;5.928;2022-12-22T08:06:51;100295.56;;;10.72;81.19
66945;BME280;53853;51.982;5.928;2022-12-22T08:09:21;100305.41;;;10.72;81.24
66945;BME280;53853;51.982;5.928;2022-12-22T08:11:51;100311.56;;;10.72;81.09
66945;BME280;53853;51.982;5.928;2022-12-22T08:14:21;100314.41;;;10.71;81.40
66945;BME280;53853;51.982;5.928;2022-12-22T08:16:51;100305.56;;;10.70;81.09
66945;BME280;53853;51.982;5.928;2022-12-22T08:19:21;100321.56;;;10.70;80.97
66945;BME280;53853;51.982;5.928;2022-12-22T08:21:53;100325.91;;;10.71;80.87
66945;BME280;53853;51.982;5.928;2022-12-22T08:24:23;100313.22;;;10.73;80.63
66945;BME280;53853;51.982;5.928;2022-12-22T08:26:55;100321.22;;;10.73;80.45
66945;BME280;53853;51.982;5.928;2022-12-22T08:29:29;100326.56;;;10.73;80.46
66945;BME280;53853;51.982;5.928;2022-12-22T08:32:01;100331.91;;;10.73;80.38
66945;BME280;53853;51.982;5.928;2022-12-22T08:34:31;100329.22;;;10.73;80.35
66945;BME280;53853;51.982;5.928;2022-12-22T08:37:05;100328.25;;;10.74;80.38
66945;BME280;53853;51.982;5.928;2022-12-22T08:39:38;100329.88;;;10.75;80.34
66945;BME280;53853;51.982;5.928;2022-12-22T08:42:11;100336.22;;;10.74;80.23
66945;BME280;53853;51.982;5.928;2022-12-22T08:44:42;100339.56;;;10.76;80.17
66945;BME280;53853;51.982;5.928;2022-12-22T08:47:13;100343.22;;;10.75;80.27
66945;BME280;53853;51.982;5.928;2022-12-22T08:49:43;100352.72;;;10.78;80.42
66945;BME280;53853;51.982;5.928;2022-12-22T08:52:16;100357.06;;;10.79;80.36
66945;BME280;53853;51.982;5.928;2022-12-22T08:54:46;100354.41;;;10.79;80.25
66945;BME280;53853;51.982;5.928;2022-12-22T08:57:16;100363.38;;;10.78;79.98
66945;BME280;53853;51.982;5.928;2022-12-22T08:59:46;100378.56;;;10.77;79.53
66945;BME280;53853;51.982;5.928;2022-12-22T09:02:16;100384.88;;;10.76;79.68
66945;BME280;53853;51.982;5.928;2022-12-22T09:04:46;100384.03;;;10.76;79.50
66945;BME280;53853;51.982;5.928;2022-12-22T09:07:19;100389.38;;;10.76;79.53
66945;BME280;53853;51.982;5.928;2022-12-22T09:09:49;100393.84;;;10.75;79.42
66945;BME280;53853;51.982;5.928;2022-12-22T09:12:20;100401.34;;;10.72;79.49
66945;BME280;53853;51.982;5.928;2022-12-22T09:14:50;100403.19;;;10.71;79.81
66945;BME280;53853;51.982;5.928;2022-12-22T09:17:20;100413.03;;;10.71;79.46
66945;BME280;53853;51.982;5.928;2022-12-22T09:19:50;100417.81;;;10.67;79.67
66945;BME280;53853;51.982;5.928;2022-12-22T09:22:22;100419.81;;;10.65;79.60
66945;BME280;53853;51.982;5.928;2022-12-22T09:24:52;100420.97;;;10.62;79.66
66945;BME280;53853;51.982;5.928;2022-12-22T09:27:22;100426.75;;;10.58;79.68
66945;BME280;53853;51.982;5.928;2022-12-22T09:29:52;100432.25;;;10.56;79.62
66945;BME280;53853;51.982;5.928;2022-12-22T09:32:22;100429.25;;;10.51;79.33
66945;BME280;53853;51.982;5.928;2022-12-22T09:34:52;100443.75;;;10.48;79.37
66945;BME280;53853;51.982;5.928;2022-12-22T09:37:25;100445.03;;;10.44;79.30
66945;BME280;53853;51.982;5.928;2022-12-22T09:39:59;100446.34;;;10.40;79.54
66945;BME280;53853;51.982;5.928;2022-12-22T09:42:33;100441.31;;;10.37;79.76
66945;BME280;53853;51.982;5.928;2022-12-22T09:45:14;100440.50;;;10.37;79.85
66945;BME280;53853;51.982;5.928;2022-12-22T09:47:47;100446.13;;;10.33;80.01
66945;BME280;53853;51.982;5.928;2022-12-22T09:50:22;100448.94;;;10.32;79.26
66945;BME280;53853;51.982;5.928;2022-12-22T09:53:02;100453.59;;;10.30;79.55
66945;BME280;53853;51.982;5.928;2022-12-22T09:55:40;100449.56;;;10.26;79.55
66945;BME280;53853;51.982;5.928;2022-12-22T09:58:22;100438.38;;;10.22;79.49
66945;BME280;53853;51.982;5.928;2022-12-22T10:01:00;100436.56;;;10.23;79.88
66945;BME280;53853;51.982;5.928;2022-12-22T10:03:42;100448.06;;;10.23;79.83
66945;BME280;53853;51.982;5.928;2022-12-22T10:06:17;100451.34;;;10.17;79.89
66945;BME280;53853;51.982;5.928;2022-12-22T10:08:53;100458.28;;;10.10;79.81
66945;BME280;53853;51.982;5.928;2022-12-22T10:11:23;100464.06;;;10.05;80.10
66945;BME280;53853;51.982;5.928;2022-12-22T10:13:52;100457.41;;;10.01;80.09
66945;BME280;53853;51.982;5.928;2022-12-22T10:16:24;100457.56;;;10.00;79.95
66945;BME280;53853;51.982;5.928;2022-12-22T10:18:57;100462.38;;;9.96;79.66
66945;BME280;53853;51.982;5.928;2022-12-22T10:21:27;100461.97;;;9.91;79.71
66945;BME280;53853;51.982;5.928;2022-12-22T10:24:00;100466.63;;;9.89;79.73
66945;BME280;53853;51.982;5.928;2022-12-22T10:26:43;100458.94;;;9.86;79.69
66945;BME280;53853;51.982;5.928;2022-12-22T10:29:14;100472.25;;;9.86;79.69
66945;BME280;53853;51.982;5.928;2022-12-22T10:31:58;100478.19;;;9.79;79.24
66945;BME280;53853;51.982;5.928;2022-12-22T10:34:29;100481.31;;;9.75;79.14
66945;BME280;53853;51.982;5.928;2022-12-22T10:37:01;100490.19;;;9.66;79.06
66945;BME280;53853;51.982;5.928;2022-12-22T10:39:36;100489.97;;;9.59;79.32
66945;BME280;53853;51.982;5.928;2022-12-22T10:42:08;100506.25;;;9.56;79.63
66945;BME280;53853;51.982;5.928;2022-12-22T10:44:45;100505.56;;;9.54;79.78
66945;BME280;53853;51.982;5.928;2022-12-22T10:47:18;100495.44;;;9.57;80.22
66945;BME280;53853;51.982;5.928;2022-12-22T10:49:51;100492.78;;;9.57;79.80
66945;BME280;53853;51.982;5.928;2022-12-22T10:52:27;100496.59;;;9.55;79.57
66945;BME280;53853;51.982;5.928;2022-12-22T10:57:47;100505.34;;;9.47;79.69
66945;BME280;53853;51.982;5.928;2022-12-22T11:00:28;100505.34;;;9.47;79.83
66945;BME280;53853;51.982;5.928;2022-12-22T11:02:59;100503.34;;;9.49;80.00
66945;BME280;53853;51.982;5.928;2022-12-22T11:05:31;100505.03;;;9.50;80.00
66945;BME280;53853;51.982;5.928;2022-12-22T11:08:14;100507.69;;;9.50;79.88
66945;BME280;53853;51.982;5.928;2022-12-22T11:10:50;100512.72;;;9.53;79.92
66945;BME280;53853;51.982;5.928;2022-12-22T11:13:50;100515.00;;;9.66;80.12
66945;BME280;53853;51.982;5.928;2022-12-22T11:16:26;100514.91;;;9.76;79.82
66945;BME280;53853;51.982;5.928;2022-12-22T11:19:10;100519.78;;;9.81;79.68
66945;BME280;53853;51.982;5.928;2022-12-22T11:21:48;100528.81;;;9.88;79.98
66945;BME280;53853;51.982;5.928;2022-12-22T11:24:30;100512.53;;;9.91;79.46
66945;BME280;53853;51.982;5.928;2022-12-22T11:27:17;100515.41;;;9.97;79.53
66945;BME280;53853;51.982;5.928;2022-12-22T11:30:05;100517.78;;;10.01;79.41
66945;BME280;53853;51.982;5.928;2022-12-22T11:32:58;100527.81;;;10.07;79.17
66945;BME280;53853;51.982;5.928;2022-12-22T11:35:45;100533.53;;;10.12;79.07
66945;BME280;53853;51.982;5.928;2022-12-22T11:38:26;100539.38;;;10.15;79.48
66945;BME280;53853;51.982;5.928;2022-12-22T11:41:10;100539.75;;;10.21;78.68
66945;BME280;53853;51.982;5.928;2022-12-22T11:43:54;100546.44;;;10.25;78.76
66945;BME280;53853;51.982;5.928;2022-12-22T11:46:33;100549.31;;;10.31;78.67
66945;BME280;53853;51.982;5.928;2022-12-22T11:49:21;100544.13;;;10.30;77.79
66945;BME280;53853;51.982;5.928;2022-12-22T11:52:18;100543.88;;;10.33;78.26
66945;BME280;53853;51.982;5.928;2022-12-22T11:55:08;100554.22;;;10.36;77.29
66945;BME280;53853;51.982;5.928;2022-12-22T11:57:47;100536.16;;;10.30;77.42
66945;BME280;53853;51.982;5.928;2022-12-22T12:00:21;100541.19;;;10.33;77.89
66945;BME280;53853;51.982;5.928;2022-12-22T12:03:24;100539.13;;;10.27;77.69
66945;BME280;53853;51.982;5.928;2022-12-22T12:06:12;100545.75;;;10.23;78.16
66945;BME280;53853;51.982;5.928;2022-12-22T12:11:42;100539.47;;;10.32;78.47
66945;BME280;53853;51.982;5.928;2022-12-22T12:14:21;100543.41;;;10.38;78.60
66945;BME280;53853;51.982;5.928;2022-12-22T12:16:58;100535.16;;;10.49;78.78
66945;BME280;53853;51.982;5.928;2022-12-22T12:19:54;100535.19;;;10.57;78.82
66945;BME280;53853;51.982;5.928;2022-12-22T12:22:39;100527.56;;;10.62;78.69
66945;BME280;53853;51.982;5.928;2022-12-22T12:25:22;100532.72;;;10.64;78.73
66945;BME280;53853;51.982;5.928;2022-12-22T12:28:05;100518.78;;;10.70;78.74
66945;BME280;53853;51.982;5.928;2022-12-22T12:30:44;100521.63;;;10.77;78.95
66945;BME280;53853;51.982;5.928;2022-12-22T12:33:20;100517.19;;;10.85;78.87
66945;BME280;53853;51.982;5.928;2022-12-22T12:36:00;100514.56;;;10.94;78.93
66945;BME280;53853;51.982;5.928;2022-12-22T12:38:40;100517.94;;;11.04;78.95
66945;BME280;53853;51.982;5.928;2022-12-22T12:41:19;100508.59;;;11.08;78.48
66945;BME280;53853;51.982;5.928;2022-12-22T12:43:52;100507.31;;;11.12;77.96
66945;BME280;53853;51.982;5.928;2022-12-22T12:49:57;100502.16;;;11.19;77.10
66945;BME280;53853;51.982;5.928;2022-12-22T12:55:33;100499.31;;;11.20;74.44
66945;BME280;53853;51.982;5.928;2022-12-22T13:08:05;100496.44;;;11.05;73.78
66945;BME280;53853;51.982;5.928;2022-12-22T13:10:41;100499.28;;;11.04;73.62
66945;BME280;53853;51.982;5.928;2022-12-22T13:16:20;100508.25;;;11.03;72.82
66945;BME280;53853;51.982;5.928;2022-12-22T13:18:51;100512.56;;;10.96;72.37
66945;BME280;53853;51.982;5.928;2022-12-22T13:21:27;100519.38;;;10.90;72.82
66945;BME280;53853;51.982;5.928;2022-12-22T13:24:01;100522.69;;;10.84;72.59
66945;BME280;53853;51.982;5.928;2022-12-22T13:26:37;100518.50;;;10.81;73.41
66945;BME280;53853;51.982;5.928;2022-12-22T13:29:14;100523.50;;;10.84;73.63
66945;BME280;53853;51.982;5.928;2022-12-22T13:31:47;100522.00;;;10.82;72.71
66945;BME280;53853;51.982;5.928;2022-12-22T13:34:34;100526.50;;;10.81;73.12
66945;BME280;53853;51.982;5.928;2022-12-22T13:37:16;100538.84;;;10.82;73.51
66945;BME280;53853;51.982;5.928;2022-12-22T13:40:15;100534.31;;;10.83;73.36
66945;BME280;53853;51.982;5.928;2022-12-22T13:42:50;100533.81;;;10.79;73.03
66945;BME280;53853;51.982;5.928;2022-12-22T13:45:30;100532.59;;;10.74;73.42
66945;BME280;53853;51.982;5.928;2022-12-22T13:48:06;100540.44;;;10.75;73.35
66945;BME280;53853;51.982;5.928;2022-12-22T13:50:40;100532.59;;;10.74;73.11
66945;BME280;53853;51.982;5.928;2022-12-22T13:53:18;100534.09;;;10.68;73.54
66945;BME280;53853;51.982;5.928;2022-12-22T13:55:48;100523.59;;;10.66;74.04
66945;BME280;53853;51.982;5.928;2022-12-22T13:58:25;100532.09;;;10.70;74.21
66945;BME280;53853;51.982;5.928;2022-12-22T14:01:11;100523.13;;;10.71;73.83
66945;BME280;53853;51.982;5.928;2022-12-22T14:03:48;100515.94;;;10.72;74.19
66945;BME280;53853;51.982;5.928;2022-12-22T14:06:20;100518.63;;;10.72;74.31
66945;BME280;53853;51.982;5.928;2022-12-22T14:08:53;100509.47;;;10.74;74.22